sensor_id;sensor_type;location;lat;lon;timestamp;P1;P2;P0
47810;PMS5003;33575;52.600;7.318;2024-03-08T00:01:16;50;43;
47810;PMS5003;33575;52.600;7.318;2024-03-08T00:03:47;43;43;
47810;PMS5003;33575;52.600;7.318;2024-03-08T00:06:17;56;45;
47810;PMS5003;33575;52.600;7.318;2024-03-08T00:08:47;52;45;
47810;PMS5003;33575;52.600;7.318;2024-03-08T00:11:18;46;45;
47810;PMS5003;33575;52.600;7.318;2024-03-08T00:13:48;48;42;
47810;PMS5003;33575;52.600;7.318;2024-03-08T00:16:18;56;46;
47810;PMS5003;33575;52.600;7.318;2024-03-08T00:18:49;55;51;
47810;PMS5003;33575;52.600;7.318;2024-03-08T00:21:19;47;41;
47810;PMS5003;33575;52.600;7.318;2024-03-08T00:23:50;50;43;
47810;PMS5003;33575;52.600;7.318;2024-03-08T00:26:20;59;44;
47810;PMS5003;33575;52.600;7.318;2024-03-08T00:28:50;49;44;
47810;PMS5003;33575;52.600;7.318;2024-03-08T00:31:20;50;42;
47810;PMS5003;33575;52.600;7.318;2024-03-08T00:33:51;53;43;
47810;PMS5003;33575;52.600;7.318;2024-03-08T00:36:22;49;44;
47810;PMS5003;33575;52.600;7.318;2024-03-08T00:38:52;57;46;
47810;PMS5003;33575;52.600;7.318;2024-03-08T00:41:23;56;47;
47810;PMS5003;33575;52.600;7.318;2024-03-08T00:43:53;53;45;
47810;PMS5003;33575;52.600;7.318;2024-03-08T00:46:23;50;43;
47810;PMS5003;33575;52.600;7.318;2024-03-08T00:48:54;58;43;
47810;PMS5003;33575;52.600;7.318;2024-03-08T00:51:25;54;46;
47810;PMS5003;33575;52.600;7.318;2024-03-08T00:53:55;55;43;
47810;PMS5003;33575;52.600;7.318;2024-03-08T00:56:26;47;42;
47810;PMS5003;33575;52.600;7.318;2024-03-08T00:58:57;65;49;
47810;PMS5003;33575;52.600;7.318;2024-03-08T01:01:27;55;47;
47810;PMS5003;33575;52.600;7.318;2024-03-08T01:03:57;53;45;
47810;PMS5003;33575;52.600;7.318;2024-03-08T01:06:27;49;44;
47810;PMS5003;33575;52.600;7.318;2024-03-08T01:08:58;47;42;
47810;PMS5003;33575;52.600;7.318;2024-03-08T01:11:29;47;44;
47810;PMS5003;33575;52.600;7.318;2024-03-08T01:13:59;57;47;
47810;PMS5003;33575;52.600;7.318;2024-03-08T01:16:30;54;45;
47810;PMS5003;33575;52.600;7.318;2024-03-08T01:19:00;50;45;
47810;PMS5003;33575;52.600;7.318;2024-03-08T01:21:30;60;47;
47810;PMS5003;33575;52.600;7.318;2024-03-08T01:24:02;49;43;
47810;PMS5003;33575;52.600;7.318;2024-03-08T01:26:32;60;44;
47810;PMS5003;33575;52.600;7.318;2024-03-08T01:29:03;56;45;
47810;PMS5003;33575;52.600;7.318;2024-03-08T01:31:33;50;44;
47810;PMS5003;33575;52.600;7.318;2024-03-08T01:34:03;60;50;
47810;PMS5003;33575;52.600;7.318;2024-03-08T01:36:33;54;44;
47810;PMS5003;33575;52.600;7.318;2024-03-08T01:39:03;50;42;
47810;PMS5003;33575;52.600;7.318;2024-03-08T01:41:33;52;41;
47810;PMS5003;33575;52.600;7.318;2024-03-08T01:44:04;50;44;
47810;PMS5003;33575;52.600;7.318;2024-03-08T01:46:35;55;44;
47810;PMS5003;33575;52.600;7.318;2024-03-08T01:49:05;56;46;
47810;PMS5003;33575;52.600;7.318;2024-03-08T01:51:36;45;42;
47810;PMS5003;33575;52.600;7.318;2024-03-08T01:54:06;47;45;
47810;PMS5003;33575;52.600;7.318;2024-03-08T01:56:36;51;44;
47810;PMS5003;33575;52.600;7.318;2024-03-08T01:59:06;54;46;
47810;PMS5003;33575;52.600;7.318;2024-03-08T02:01:37;54;47;
47810;PMS5003;33575;52.600;7.318;2024-03-08T02:04:07;62;50;
47810;PMS5003;33575;52.600;7.318;2024-03-08T02:06:37;53;44;
47810;PMS5003;33575;52.600;7.318;2024-03-08T02:09:08;48;44;
47810;PMS5003;33575;52.600;7.318;2024-03-08T02:11:39;65;49;
47810;PMS5003;33575;52.600;7.318;2024-03-08T02:14:08;53;44;
47810;PMS5003;33575;52.600;7.318;2024-03-08T02:16:39;51;43;
47810;PMS5003;33575;52.600;7.318;2024-03-08T02:19:09;51;47;
47810;PMS5003;33575;52.600;7.318;2024-03-08T02:21:39;55;45;
47810;PMS5003;33575;52.600;7.318;2024-03-08T02:24:10;51;42;
47810;PMS5003;33575;52.600;7.318;2024-03-08T02:26:40;54;44;
47810;PMS5003;33575;52.600;7.318;2024-03-08T02:29:11;46;44;
47810;PMS5003;33575;52.600;7.318;2024-03-08T02:31:41;58;49;
47810;PMS5003;33575;52.600;7.318;2024-03-08T02:34:12;54;47;
47810;PMS5003;33575;52.600;7.318;2024-03-08T02:36:42;47;46;
47810;PMS5003;33575;52.600;7.318;2024-03-08T02:39:12;61;47;
47810;PMS5003;33575;52.600;7.318;2024-03-08T02:41:42;48;45;
47810;PMS5003;33575;52.600;7.318;2024-03-08T02:44:12;58;43;
47810;PMS5003;33575;52.600;7.318;2024-03-08T02:46:42;55;44;
47810;PMS5003;33575;52.600;7.318;2024-03-08T02:49:13;57;46;
47810;PMS5003;33575;52.600;7.318;2024-03-08T02:51:44;52;44;
47810;PMS5003;33575;52.600;7.318;2024-03-08T02:54:15;61;45;
47810;PMS5003;33575;52.600;7.318;2024-03-08T02:56:45;54;48;
47810;PMS5003;33575;52.600;7.318;2024-03-08T02:59:15;55;49;
47810;PMS5003;33575;52.600;7.318;2024-03-08T03:01:46;57;46;
47810;PMS5003;33575;52.600;7.318;2024-03-08T03:04:16;52;46;
47810;PMS5003;33575;52.600;7.318;2024-03-08T03:06:47;49;43;
47810;PMS5003;33575;52.600;7.318;2024-03-08T03:09:17;64;49;
47810;PMS5003;33575;52.600;7.318;2024-03-08T03:11:48;62;48;
47810;PMS5003;33575;52.600;7.318;2024-03-08T03:14:18;54;42;
47810;PMS5003;33575;52.600;7.318;2024-03-08T03:16:48;51;45;
47810;PMS5003;33575;52.600;7.318;2024-03-08T03:19:18;47;44;
47810;PMS5003;33575;52.600;7.318;2024-03-08T03:21:48;50;49;
47810;PMS5003;33575;52.600;7.318;2024-03-08T03:24:19;62;47;
47810;PMS5003;33575;52.600;7.318;2024-03-08T03:26:49;55;47;
47810;PMS5003;33575;52.600;7.318;2024-03-08T03:29:19;50;45;
47810;PMS5003;33575;52.600;7.318;2024-03-08T03:31:49;59;52;
47810;PMS5003;33575;52.600;7.318;2024-03-08T03:34:20;53;45;
47810;PMS5003;33575;52.600;7.318;2024-03-08T03:36:50;59;49;
47810;PMS5003;33575;52.600;7.318;2024-03-08T03:39:20;62;48;
47810;PMS5003;33575;52.600;7.318;2024-03-08T03:41:51;62;48;
47810;PMS5003;33575;52.600;7.318;2024-03-08T03:44:22;60;48;
47810;PMS5003;33575;52.600;7.318;2024-03-08T03:46:52;66;48;
47810;PMS5003;33575;52.600;7.318;2024-03-08T03:49:23;50;44;
47810;PMS5003;33575;52.600;7.318;2024-03-08T03:51:54;58;47;
47810;PMS5003;33575;52.600;7.318;2024-03-08T03:54:24;62;52;
47810;PMS5003;33575;52.600;7.318;2024-03-08T03:56:54;57;48;
47810;PMS5003;33575;52.600;7.318;2024-03-08T03:59:25;59;47;
47810;PMS5003;33575;52.600;7.318;2024-03-08T04:01:55;56;49;
47810;PMS5003;33575;52.600;7.318;2024-03-08T04:04:26;58;48;
47810;PMS5003;33575;52.600;7.318;2024-03-08T04:06:57;58;49;
47810;PMS5003;33575;52.600;7.318;2024-03-08T04:09:27;56;50;
47810;PMS5003;33575;52.600;7.318;2024-03-08T04:11:57;61;53;
47810;PMS5003;33575;52.600;7.318;2024-03-08T04:14:28;56;46;
47810;PMS5003;33575;52.600;7.318;2024-03-08T04:16:58;60;51;
47810;PMS5003;33575;52.600;7.318;2024-03-08T04:19:29;53;45;
47810;PMS5003;33575;52.600;7.318;2024-03-08T04:22:00;189;100;
47810;PMS5003;33575;52.600;7.318;2024-03-08T04:24:30;55;51;
47810;PMS5003;33575;52.600;7.318;2024-03-08T04:27:01;56;50;
47810;PMS5003;33575;52.600;7.318;2024-03-08T04:29:31;60;49;
47810;PMS5003;33575;52.600;7.318;2024-03-08T04:32:04;62;50;
47810;PMS5003;33575;52.600;7.318;2024-03-08T04:34:33;59;48;
47810;PMS5003;33575;52.600;7.318;2024-03-08T04:37:03;60;52;
47810;PMS5003;33575;52.600;7.318;2024-03-08T04:39:34;61;50;
47810;PMS5003;33575;52.600;7.318;2024-03-08T04:42:07;61;54;
47810;PMS5003;33575;52.600;7.318;2024-03-08T04:44:35;63;52;
47810;PMS5003;33575;52.600;7.318;2024-03-08T04:47:05;57;48;
47810;PMS5003;33575;52.600;7.318;2024-03-08T04:49:36;69;52;
47810;PMS5003;33575;52.600;7.318;2024-03-08T04:52:06;71;52;
47810;PMS5003;33575;52.600;7.318;2024-03-08T04:54:36;56;52;
47810;PMS5003;33575;52.600;7.318;2024-03-08T04:57:10;65;55;
47810;PMS5003;33575;52.600;7.318;2024-03-08T04:59:37;65;52;
47810;PMS5003;33575;52.600;7.318;2024-03-08T05:02:07;63;53;
47810;PMS5003;33575;52.600;7.318;2024-03-08T05:04:37;65;53;
47810;PMS5003;33575;52.600;7.318;2024-03-08T05:07:08;65;52;
47810;PMS5003;33575;52.600;7.318;2024-03-08T05:09:38;61;53;
47810;PMS5003;33575;52.600;7.318;2024-03-08T05:12:09;65;56;
47810;PMS5003;33575;52.600;7.318;2024-03-08T05:14:40;60;48;
47810;PMS5003;33575;52.600;7.318;2024-03-08T05:17:11;55;50;
47810;PMS5003;33575;52.600;7.318;2024-03-08T05:19:41;64;51;
47810;PMS5003;33575;52.600;7.318;2024-03-08T05:22:11;56;48;
47810;PMS5003;33575;52.600;7.318;2024-03-08T05:24:42;68;59;
47810;PMS5003;33575;52.600;7.318;2024-03-08T05:27:13;62;53;
47810;PMS5003;33575;52.600;7.318;2024-03-08T05:29:43;63;53;
47810;PMS5003;33575;52.600;7.318;2024-03-08T05:32:13;59;54;
47810;PMS5003;33575;52.600;7.318;2024-03-08T05:34:44;53;49;
47810;PMS5003;33575;52.600;7.318;2024-03-08T05:37:14;64;55;
47810;PMS5003;33575;52.600;7.318;2024-03-08T05:39:45;70;56;
47810;PMS5003;33575;52.600;7.318;2024-03-08T05:42:15;65;54;
47810;PMS5003;33575;52.600;7.318;2024-03-08T05:44:46;60;52;
47810;PMS5003;33575;52.600;7.318;2024-03-08T05:47:16;68;52;
47810;PMS5003;33575;52.600;7.318;2024-03-08T05:49:46;61;56;
47810;PMS5003;33575;52.600;7.318;2024-03-08T05:52:17;70;55;
47810;PMS5003;33575;52.600;7.318;2024-03-08T05:54:48;63;54;
47810;PMS5003;33575;52.600;7.318;2024-03-08T05:57:18;52;47;
47810;PMS5003;33575;52.600;7.318;2024-03-08T05:59:48;65;53;
47810;PMS5003;33575;52.600;7.318;2024-03-08T06:02:19;60;53;
47810;PMS5003;33575;52.600;7.318;2024-03-08T06:04:49;62;51;
47810;PMS5003;33575;52.600;7.318;2024-03-08T06:07:20;69;54;
47810;PMS5003;33575;52.600;7.318;2024-03-08T06:09:50;60;52;
47810;PMS5003;33575;52.600;7.318;2024-03-08T06:12:21;63;52;
47810;PMS5003;33575;52.600;7.318;2024-03-08T06:14:51;64;52;
47810;PMS5003;33575;52.600;7.318;2024-03-08T06:17:21;63;57;
47810;PMS5003;33575;52.600;7.318;2024-03-08T06:19:52;62;56;
47810;PMS5003;33575;52.600;7.318;2024-03-08T06:22:22;62;55;
47810;PMS5003;33575;52.600;7.318;2024-03-08T06:24:52;70;55;
47810;PMS5003;33575;52.600;7.318;2024-03-08T06:27:23;66;53;
47810;PMS5003;33575;52.600;7.318;2024-03-08T06:29:53;64;54;
47810;PMS5003;33575;52.600;7.318;2024-03-08T06:32:23;62;50;
47810;PMS5003;33575;52.600;7.318;2024-03-08T06:34:54;60;54;
47810;PMS5003;33575;52.600;7.318;2024-03-08T06:37:24;64;55;
47810;PMS5003;33575;52.600;7.318;2024-03-08T06:39:55;65;53;
47810;PMS5003;33575;52.600;7.318;2024-03-08T06:42:25;66;55;
47810;PMS5003;33575;52.600;7.318;2024-03-08T06:44:55;67;51;
47810;PMS5003;33575;52.600;7.318;2024-03-08T06:47:26;70;51;
47810;PMS5003;33575;52.600;7.318;2024-03-08T06:49:56;61;48;
47810;PMS5003;33575;52.600;7.318;2024-03-08T06:52:26;62;49;
47810;PMS5003;33575;52.600;7.318;2024-03-08T06:54:57;68;58;
47810;PMS5003;33575;52.600;7.318;2024-03-08T06:57:28;63;51;
47810;PMS5003;33575;52.600;7.318;2024-03-08T06:59:58;57;49;
47810;PMS5003;33575;52.600;7.318;2024-03-08T07:02:29;61;52;
47810;PMS5003;33575;52.600;7.318;2024-03-08T07:04:59;65;53;
47810;PMS5003;33575;52.600;7.318;2024-03-08T07:07:30;59;54;
47810;PMS5003;33575;52.600;7.318;2024-03-08T07:10:01;61;52;
47810;PMS5003;33575;52.600;7.318;2024-03-08T07:12:31;55;48;
47810;PMS5003;33575;52.600;7.318;2024-03-08T07:15:02;68;57;
47810;PMS5003;33575;52.600;7.318;2024-03-08T07:17:32;56;50;
47810;PMS5003;33575;52.600;7.318;2024-03-08T07:20:02;63;51;
47810;PMS5003;33575;52.600;7.318;2024-03-08T07:22:32;61;52;
47810;PMS5003;33575;52.600;7.318;2024-03-08T07:25:02;66;55;
47810;PMS5003;33575;52.600;7.318;2024-03-08T07:27:33;67;55;
47810;PMS5003;33575;52.600;7.318;2024-03-08T07:30:06;57;51;
47810;PMS5003;33575;52.600;7.318;2024-03-08T07:32:33;58;53;
47810;PMS5003;33575;52.600;7.318;2024-03-08T07:35:04;61;54;
47810;PMS5003;33575;52.600;7.318;2024-03-08T07:37:34;72;59;
47810;PMS5003;33575;52.600;7.318;2024-03-08T07:40:04;67;57;
47810;PMS5003;33575;52.600;7.318;2024-03-08T07:42:34;60;54;
47810;PMS5003;33575;52.600;7.318;2024-03-08T07:45:05;52;49;
47810;PMS5003;33575;52.600;7.318;2024-03-08T07:47:34;69;56;
47810;PMS5003;33575;52.600;7.318;2024-03-08T07:50:06;73;59;
47810;PMS5003;33575;52.600;7.318;2024-03-08T07:52:35;74;59;
47810;PMS5003;33575;52.600;7.318;2024-03-08T07:55:06;70;61;
47810;PMS5003;33575;52.600;7.318;2024-03-08T07:57:36;67;58;
47810;PMS5003;33575;52.600;7.318;2024-03-08T08:00:07;66;53;
47810;PMS5003;33575;52.600;7.318;2024-03-08T08:02:41;73;55;
47810;PMS5003;33575;52.600;7.318;2024-03-08T08:05:08;73;59;
47810;PMS5003;33575;52.600;7.318;2024-03-08T08:07:38;74;57;
47810;PMS5003;33575;52.600;7.318;2024-03-08T08:10:09;65;58;
47810;PMS5003;33575;52.600;7.318;2024-03-08T08:12:40;75;65;
47810;PMS5003;33575;52.600;7.318;2024-03-08T08:15:10;71;57;
47810;PMS5003;33575;52.600;7.318;2024-03-08T08:17:41;67;57;
47810;PMS5003;33575;52.600;7.318;2024-03-08T08:20:11;76;59;
47810;PMS5003;33575;52.600;7.318;2024-03-08T08:22:42;73;56;
47810;PMS5003;33575;52.600;7.318;2024-03-08T08:25:12;69;58;
47810;PMS5003;33575;52.600;7.318;2024-03-08T08:27:42;66;54;
47810;PMS5003;33575;52.600;7.318;2024-03-08T08:30:13;73;61;
47810;PMS5003;33575;52.600;7.318;2024-03-08T08:32:43;68;60;
47810;PMS5003;33575;52.600;7.318;2024-03-08T08:35:14;74;63;
47810;PMS5003;33575;52.600;7.318;2024-03-08T08:37:44;63;58;
47810;PMS5003;33575;52.600;7.318;2024-03-08T08:40:14;69;55;
47810;PMS5003;33575;52.600;7.318;2024-03-08T08:42:46;71;59;
47810;PMS5003;33575;52.600;7.318;2024-03-08T08:45:18;76;61;
47810;PMS5003;33575;52.600;7.318;2024-03-08T08:47:46;75;58;
47810;PMS5003;33575;52.600;7.318;2024-03-08T08:50:16;72;59;
47810;PMS5003;33575;52.600;7.318;2024-03-08T08:52:46;64;58;
47810;PMS5003;33575;52.600;7.318;2024-03-08T08:55:17;70;57;
47810;PMS5003;33575;52.600;7.318;2024-03-08T08:57:47;74;62;
47810;PMS5003;33575;52.600;7.318;2024-03-08T09:00:18;75;61;
47810;PMS5003;33575;52.600;7.318;2024-03-08T09:02:49;70;57;
47810;PMS5003;33575;52.600;7.318;2024-03-08T09:05:19;68;56;
47810;PMS5003;33575;52.600;7.318;2024-03-08T09:07:49;66;56;
47810;PMS5003;33575;52.600;7.318;2024-03-08T09:10:19;68;56;
47810;PMS5003;33575;52.600;7.318;2024-03-08T09:12:49;75;61;
47810;PMS5003;33575;52.600;7.318;2024-03-08T09:15:20;68;59;
47810;PMS5003;33575;52.600;7.318;2024-03-08T09:17:51;67;57;
47810;PMS5003;33575;52.600;7.318;2024-03-08T09:20:21;67;59;
47810;PMS5003;33575;52.600;7.318;2024-03-08T09:22:52;70;59;
47810;PMS5003;33575;52.600;7.318;2024-03-08T09:25:22;66;57;
47810;PMS5003;33575;52.600;7.318;2024-03-08T09:27:53;70;59;
47810;PMS5003;33575;52.600;7.318;2024-03-08T09:30:24;60;56;
47810;PMS5003;33575;52.600;7.318;2024-03-08T09:32:56;63;57;
47810;PMS5003;33575;52.600;7.318;2024-03-08T09:35:25;72;61;
47810;PMS5003;33575;52.600;7.318;2024-03-08T09:37:55;59;54;
47810;PMS5003;33575;52.600;7.318;2024-03-08T09:40:26;72;63;
47810;PMS5003;33575;52.600;7.318;2024-03-08T09:42:56;68;58;
47810;PMS5003;33575;52.600;7.318;2024-03-08T09:45:27;60;55;
47810;PMS5003;33575;52.600;7.318;2024-03-08T09:47:57;76;62;
47810;PMS5003;33575;52.600;7.318;2024-03-08T09:50:27;70;56;
47810;PMS5003;33575;52.600;7.318;2024-03-08T09:52:58;60;53;
47810;PMS5003;33575;52.600;7.318;2024-03-08T09:55:29;68;57;
47810;PMS5003;33575;52.600;7.318;2024-03-08T09:57:59;64;53;
47810;PMS5003;33575;52.600;7.318;2024-03-08T10:00:29;67;57;
47810;PMS5003;33575;52.600;7.318;2024-03-08T10:03:00;68;58;
47810;PMS5003;33575;52.600;7.318;2024-03-08T10:05:30;73;59;
47810;PMS5003;33575;52.600;7.318;2024-03-08T10:08:00;71;62;
47810;PMS5003;33575;52.600;7.318;2024-03-08T10:10:31;61;58;
47810;PMS5003;33575;52.600;7.318;2024-03-08T10:13:01;75;66;
47810;PMS5003;33575;52.600;7.318;2024-03-08T10:15:32;68;59;
47810;PMS5003;33575;52.600;7.318;2024-03-08T10:18:03;79;64;
47810;PMS5003;33575;52.600;7.318;2024-03-08T10:20:33;67;60;
47810;PMS5003;33575;52.600;7.318;2024-03-08T10:23:09;74;63;
47810;PMS5003;33575;52.600;7.318;2024-03-08T10:25:34;65;60;
47810;PMS5003;33575;52.600;7.318;2024-03-08T10:28:05;74;62;
47810;PMS5003;33575;52.600;7.318;2024-03-08T10:30:35;66;59;
47810;PMS5003;33575;52.600;7.318;2024-03-08T10:33:06;71;63;
47810;PMS5003;33575;52.600;7.318;2024-03-08T10:35:36;68;60;
47810;PMS5003;33575;52.600;7.318;2024-03-08T10:38:07;66;55;
47810;PMS5003;33575;52.600;7.318;2024-03-08T10:40:38;67;60;
47810;PMS5003;33575;52.600;7.318;2024-03-08T10:43:10;71;58;
47810;PMS5003;33575;52.600;7.318;2024-03-08T10:45:39;76;62;
47810;PMS5003;33575;52.600;7.318;2024-03-08T10:48:15;63;54;
47810;PMS5003;33575;52.600;7.318;2024-03-08T10:50:41;63;54;
47810;PMS5003;33575;52.600;7.318;2024-03-08T10:53:11;66;57;
47810;PMS5003;33575;52.600;7.318;2024-03-08T10:55:41;68;56;
47810;PMS5003;33575;52.600;7.318;2024-03-08T10:58:12;72;59;
47810;PMS5003;33575;52.600;7.318;2024-03-08T11:00:43;70;53;
47810;PMS5003;33575;52.600;7.318;2024-03-08T11:05:47;63;53;
47810;PMS5003;33575;52.600;7.318;2024-03-08T11:08:17;69;54;
47810;PMS5003;33575;52.600;7.318;2024-03-08T11:10:48;58;51;
47810;PMS5003;33575;52.600;7.318;2024-03-08T11:15:46;60;53;
47810;PMS5003;33575;52.600;7.318;2024-03-08T11:18:16;54;49;
47810;PMS5003;33575;52.600;7.318;2024-03-08T11:20:47;64;57;
47810;PMS5003;33575;52.600;7.318;2024-03-08T11:23:17;64;54;
47810;PMS5003;33575;52.600;7.318;2024-03-08T11:25:47;65;53;
47810;PMS5003;33575;52.600;7.318;2024-03-08T11:28:18;58;53;
47810;PMS5003;33575;52.600;7.318;2024-03-08T11:33:18;68;59;
47810;PMS5003;33575;52.600;7.318;2024-03-08T11:35:49;65;60;
47810;PMS5003;33575;52.600;7.318;2024-03-08T11:38:19;70;56;
47810;PMS5003;33575;52.600;7.318;2024-03-08T11:40:50;61;53;
47810;PMS5003;33575;52.600;7.318;2024-03-08T11:43:20;74;60;
47810;PMS5003;33575;52.600;7.318;2024-03-08T11:45:50;62;52;
47810;PMS5003;33575;52.600;7.318;2024-03-08T11:48:20;63;55;
47810;PMS5003;33575;52.600;7.318;2024-03-08T11:53:21;69;54;
47810;PMS5003;33575;52.600;7.318;2024-03-08T11:55:52;60;54;
47810;PMS5003;33575;52.600;7.318;2024-03-08T11:58:22;67;54;
47810;PMS5003;33575;52.600;7.318;2024-03-08T12:03:22;61;54;
47810;PMS5003;33575;52.600;7.318;2024-03-08T12:05:57;54;53;
47810;PMS5003;33575;52.600;7.318;2024-03-08T12:08:23;61;53;
47810;PMS5003;33575;52.600;7.318;2024-03-08T12:10:54;57;50;
47810;PMS5003;33575;52.600;7.318;2024-03-08T12:13:25;55;51;
47810;PMS5003;33575;52.600;7.318;2024-03-08T12:15:56;58;50;
47810;PMS5003;33575;52.600;7.318;2024-03-08T12:18:26;57;48;
47810;PMS5003;33575;52.600;7.318;2024-03-08T12:23:26;49;45;
47810;PMS5003;33575;52.600;7.318;2024-03-08T12:25:57;63;54;
47810;PMS5003;33575;52.600;7.318;2024-03-08T12:28:28;63;50;
47810;PMS5003;33575;52.600;7.318;2024-03-08T12:30:58;65;56;
47810;PMS5003;33575;52.600;7.318;2024-03-08T12:33:28;64;53;
47810;PMS5003;33575;52.600;7.318;2024-03-08T12:35:58;53;51;
47810;PMS5003;33575;52.600;7.318;2024-03-08T12:38:29;61;51;
47810;PMS5003;33575;52.600;7.318;2024-03-08T12:40:59;53;47;
47810;PMS5003;33575;52.600;7.318;2024-03-08T12:43:30;65;54;
47810;PMS5003;33575;52.600;7.318;2024-03-08T12:46:00;62;57;
47810;PMS5003;33575;52.600;7.318;2024-03-08T12:48:33;54;48;
47810;PMS5003;33575;52.600;7.318;2024-03-08T12:51:00;51;49;
47810;PMS5003;33575;52.600;7.318;2024-03-08T12:53:31;56;49;
47810;PMS5003;33575;52.600;7.318;2024-03-08T12:56:02;51;46;
47810;PMS5003;33575;52.600;7.318;2024-03-08T12:58:31;56;48;
47810;PMS5003;33575;52.600;7.318;2024-03-08T13:01:02;50;45;
47810;PMS5003;33575;52.600;7.318;2024-03-08T13:03:32;62;52;
47810;PMS5003;33575;52.600;7.318;2024-03-08T13:06:03;58;50;
47810;PMS5003;33575;52.600;7.318;2024-03-08T13:08:33;55;53;
47810;PMS5003;33575;52.600;7.318;2024-03-08T13:11:04;51;48;
47810;PMS5003;33575;52.600;7.318;2024-03-08T13:13:34;60;51;
47810;PMS5003;33575;52.600;7.318;2024-03-08T13:16:04;56;44;
47810;PMS5003;33575;52.600;7.318;2024-03-08T13:18:35;64;51;
47810;PMS5003;33575;52.600;7.318;2024-03-08T13:21:05;55;45;
47810;PMS5003;33575;52.600;7.318;2024-03-08T13:23:36;49;45;
47810;PMS5003;33575;52.600;7.318;2024-03-08T13:26:07;53;44;
47810;PMS5003;33575;52.600;7.318;2024-03-08T13:28:36;53;51;
47810;PMS5003;33575;52.600;7.318;2024-03-08T13:31:07;48;43;
47810;PMS5003;33575;52.600;7.318;2024-03-08T13:33:38;48;40;
47810;PMS5003;33575;52.600;7.318;2024-03-08T13:36:11;59;50;
47810;PMS5003;33575;52.600;7.318;2024-03-08T13:38:38;45;41;
47810;PMS5003;33575;52.600;7.318;2024-03-08T13:41:09;51;47;
47810;PMS5003;33575;52.600;7.318;2024-03-08T13:43:40;54;44;
47810;PMS5003;33575;52.600;7.318;2024-03-08T13:46:10;54;47;
47810;PMS5003;33575;52.600;7.318;2024-03-08T13:48:41;53;44;
47810;PMS5003;33575;52.600;7.318;2024-03-08T13:51:11;48;44;
47810;PMS5003;33575;52.600;7.318;2024-03-08T13:53:42;47;43;
47810;PMS5003;33575;52.600;7.318;2024-03-08T13:56:12;57;47;
47810;PMS5003;33575;52.600;7.318;2024-03-08T13:58:43;49;44;
47810;PMS5003;33575;52.600;7.318;2024-03-08T14:01:14;48;44;
47810;PMS5003;33575;52.600;7.318;2024-03-08T14:03:44;49;44;
47810;PMS5003;33575;52.600;7.318;2024-03-08T14:06:19;56;47;
47810;PMS5003;33575;52.600;7.318;2024-03-08T14:08:45;58;47;
47810;PMS5003;33575;52.600;7.318;2024-03-08T14:11:16;45;42;
47810;PMS5003;33575;52.600;7.318;2024-03-08T14:13:47;53;43;
47810;PMS5003;33575;52.600;7.318;2024-03-08T14:16:17;47;42;
47810;PMS5003;33575;52.600;7.318;2024-03-08T14:18:48;57;48;
47810;PMS5003;33575;52.600;7.318;2024-03-08T14:21:18;42;40;
47810;PMS5003;33575;52.600;7.318;2024-03-08T14:23:49;56;49;
47810;PMS5003;33575;52.600;7.318;2024-03-08T14:26:19;53;44;
47810;PMS5003;33575;52.600;7.318;2024-03-08T14:28:49;52;43;
47810;PMS5003;33575;52.600;7.318;2024-03-08T14:31:20;52;46;
47810;PMS5003;33575;52.600;7.318;2024-03-08T14:33:50;51;43;
47810;PMS5003;33575;52.600;7.318;2024-03-08T14:36:21;52;43;
47810;PMS5003;33575;52.600;7.318;2024-03-08T14:38:51;48;45;
47810;PMS5003;33575;52.600;7.318;2024-03-08T14:41:21;51;45;
47810;PMS5003;33575;52.600;7.318;2024-03-08T14:43:52;50;43;
47810;PMS5003;33575;52.600;7.318;2024-03-08T14:46:22;46;44;
47810;PMS5003;33575;52.600;7.318;2024-03-08T14:48:53;52;44;
47810;PMS5003;33575;52.600;7.318;2024-03-08T14:51:23;54;42;
47810;PMS5003;33575;52.600;7.318;2024-03-08T14:53:53;47;43;
47810;PMS5003;33575;52.600;7.318;2024-03-08T14:56:24;58;44;
47810;PMS5003;33575;52.600;7.318;2024-03-08T14:58:55;58;48;
47810;PMS5003;33575;52.600;7.318;2024-03-08T15:01:25;55;43;
47810;PMS5003;33575;52.600;7.318;2024-03-08T15:03:55;59;47;
47810;PMS5003;33575;52.600;7.318;2024-03-08T15:06:25;50;40;
47810;PMS5003;33575;52.600;7.318;2024-03-08T15:08:56;53;40;
47810;PMS5003;33575;52.600;7.318;2024-03-08T15:11:27;50;44;
47810;PMS5003;33575;52.600;7.318;2024-03-08T15:13:57;55;40;
47810;PMS5003;33575;52.600;7.318;2024-03-08T15:16:28;57;49;
47810;PMS5003;33575;52.600;7.318;2024-03-08T15:18:58;55;46;
47810;PMS5003;33575;52.600;7.318;2024-03-08T15:21:29;57;48;
47810;PMS5003;33575;52.600;7.318;2024-03-08T15:24:00;46;41;
47810;PMS5003;33575;52.600;7.318;2024-03-08T15:26:31;56;47;
47810;PMS5003;33575;52.600;7.318;2024-03-08T15:29:02;45;43;
47810;PMS5003;33575;52.600;7.318;2024-03-08T15:31:32;45;37;
47810;PMS5003;33575;52.600;7.318;2024-03-08T15:34:02;55;45;
47810;PMS5003;33575;52.600;7.318;2024-03-08T15:36:33;55;45;
47810;PMS5003;33575;52.600;7.318;2024-03-08T15:39:03;55;47;
47810;PMS5003;33575;52.600;7.318;2024-03-08T15:41:34;46;42;
47810;PMS5003;33575;52.600;7.318;2024-03-08T15:44:04;50;43;
47810;PMS5003;33575;52.600;7.318;2024-03-08T15:46:35;62;50;
47810;PMS5003;33575;52.600;7.318;2024-03-08T15:49:05;51;44;
47810;PMS5003;33575;52.600;7.318;2024-03-08T15:51:40;63;50;
47810;PMS5003;33575;52.600;7.318;2024-03-08T15:54:06;53;47;
47810;PMS5003;33575;52.600;7.318;2024-03-08T15:56:36;52;45;
47810;PMS5003;33575;52.600;7.318;2024-03-08T15:59:07;55;48;
47810;PMS5003;33575;52.600;7.318;2024-03-08T16:01:37;47;45;
47810;PMS5003;33575;52.600;7.318;2024-03-08T16:04:07;55;42;
47810;PMS5003;33575;52.600;7.318;2024-03-08T16:06:38;57;48;
47810;PMS5003;33575;52.600;7.318;2024-03-08T16:09:08;55;49;
47810;PMS5003;33575;52.600;7.318;2024-03-08T16:11:39;48;47;
47810;PMS5003;33575;52.600;7.318;2024-03-08T16:14:09;62;46;
47810;PMS5003;33575;52.600;7.318;2024-03-08T16:16:40;55;46;
47810;PMS5003;33575;52.600;7.318;2024-03-08T16:19:10;51;45;
47810;PMS5003;33575;52.600;7.318;2024-03-08T16:21:41;61;48;
47810;PMS5003;33575;52.600;7.318;2024-03-08T16:24:11;58;47;
47810;PMS5003;33575;52.600;7.318;2024-03-08T16:26:42;62;49;
47810;PMS5003;33575;52.600;7.318;2024-03-08T16:29:12;50;44;
47810;PMS5003;33575;52.600;7.318;2024-03-08T16:31:43;48;47;
47810;PMS5003;33575;52.600;7.318;2024-03-08T16:34:13;55;45;
47810;PMS5003;33575;52.600;7.318;2024-03-08T16:36:43;58;49;
47810;PMS5003;33575;52.600;7.318;2024-03-08T16:39:13;49;44;
47810;PMS5003;33575;52.600;7.318;2024-03-08T16:41:43;59;46;
47810;PMS5003;33575;52.600;7.318;2024-03-08T16:44:14;51;44;
47810;PMS5003;33575;52.600;7.318;2024-03-08T16:46:45;49;45;
47810;PMS5003;33575;52.600;7.318;2024-03-08T16:49:15;61;49;
47810;PMS5003;33575;52.600;7.318;2024-03-08T16:51:46;59;49;
47810;PMS5003;33575;52.600;7.318;2024-03-08T16:54:16;62;52;